sensor_id;sensor_type;location;lat;lon;timestamp;pressure;altitude;pressure_sealevel;temperature;humidity
39455;BME280;25155;41.890;23.446;2023-06-26T00:00:59;91692.56;;;18.73;71.70
39455;BME280;25155;41.890;23.446;2023-06-26T00:03:26;91698.66;;;18.74;71.52
39455;BME280;25155;41.890;23.446;2023-06-26T00:05:54;91705.78;;;18.73;71.14
39455;BME280;25155;41.890;23.446;2023-06-26T00:08:26;91709.84;;;18.71;70.68
39455;BME280;25155;41.890;23.446;2023-06-26T00:10:55;91700.28;;;18.57;71.16
39455;BME280;25155;41.890;23.446;2023-06-26T00:13:23;91716.63;;;18.51;71.17
39455;BME280;25155;41.890;23.446;2023-06-26T00:15:51;91713.06;;;18.38;71.82
39455;BME280;25155;41.890;23.446;2023-06-26T00:18:21;91716.19;;;18.31;72.30
39455;BME280;25155;41.890;23.446;2023-06-26T00:20:48;91714.19;;;18.28;72.31
39455;BME280;25155;41.890;23.446;2023-06-26T00:23:16;91710.66;;;18.24;72.41
39455;BME280;25155;41.890;23.446;2023-06-26T00:25:44;91712.50;;;18.23;72.91
39455;BME280;25155;41.890;23.446;2023-06-26T00:28:12;91711.28;;;18.21;72.49
39455;BME280;25155;41.890;23.446;2023-06-26T00:30:39;91710.03;;;18.18;73.04
39455;BME280;25155;41.890;23.446;2023-06-26T00:33:06;91704.28;;;18.16;73.09
39455;BME280;25155;41.890;23.446;2023-06-26T00:35:34;91703.03;;;18.14;73.11
39455;BME280;25155;41.890;23.446;2023-06-26T00:38:02;91700.25;;;18.10;72.83
39455;BME280;25155;41.890;23.446;2023-06-26T00:40:29;91710.53;;;18.03;72.74
39455;BME280;25155;41.890;23.446;2023-06-26T00:42:57;91714.25;;;18.02;73.30
39455;BME280;25155;41.890;23.446;2023-06-26T00:45:25;91710.06;;;18.01;73.95
39455;BME280;25155;41.890;23.446;2023-06-26T00:47:53;91708.38;;;17.96;73.83
39455;BME280;25155;41.890;23.446;2023-06-26T00:50:20;91709.75;;;17.94;73.60
39455;BME280;25155;41.890;23.446;2023-06-26T00:52:47;91711.31;;;17.95;73.45
39455;BME280;25155;41.890;23.446;2023-06-26T00:55:15;91702.31;;;17.96;73.67
39455;BME280;25155;41.890;23.446;2023-06-26T00:57:42;91698.28;;;17.98;73.43
39455;BME280;25155;41.890;23.446;2023-06-26T01:00:12;91698.59;;;17.97;73.62
39455;BME280;25155;41.890;23.446;2023-06-26T01:02:41;91691.78;;;17.96;74.01
39455;BME280;25155;41.890;23.446;2023-06-26T01:05:08;91697.34;;;17.94;74.48
39455;BME280;25155;41.890;23.446;2023-06-26T01:07:39;91693.94;;;17.94;74.00
39455;BME280;25155;41.890;23.446;2023-06-26T01:10:07;91698.13;;;17.95;73.78
39455;BME280;25155;41.890;23.446;2023-06-26T01:12:36;91694.88;;;17.98;74.07
39455;BME280;25155;41.890;23.446;2023-06-26T01:15:05;91692.06;;;18.03;73.49
39455;BME280;25155;41.890;23.446;2023-06-26T01:17:33;91692.69;;;18.00;74.46
39455;BME280;25155;41.890;23.446;2023-06-26T01:20:03;91691.44;;;17.97;74.09
39455;BME280;25155;41.890;23.446;2023-06-26T01:22:38;91692.22;;;17.98;73.88
39455;BME280;25155;41.890;23.446;2023-06-26T01:25:15;91685.84;;;17.99;73.91
39455;BME280;25155;41.890;23.446;2023-06-26T01:27:48;91674.66;;;18.02;73.94
39455;BME280;25155;41.890;23.446;2023-06-26T01:30:18;91662.72;;;18.04;73.99
39455;BME280;25155;41.890;23.446;2023-06-26T01:32:47;91668.91;;;18.08;73.31
39455;BME280;25155;41.890;23.446;2023-06-26T01:35:15;91670.16;;;18.11;73.39
39455;BME280;25155;41.890;23.446;2023-06-26T01:37:44;91670.31;;;18.06;73.76
39455;BME280;25155;41.890;23.446;2023-06-26T01:40:11;91670.00;;;17.99;74.70
39455;BME280;25155;41.890;23.446;2023-06-26T01:42:39;91668.63;;;17.84;75.40
39455;BME280;25155;41.890;23.446;2023-06-26T01:45:13;91670.69;;;17.69;76.20
39455;BME280;25155;41.890;23.446;2023-06-26T01:47:46;91672.06;;;17.58;76.70
39455;BME280;25155;41.890;23.446;2023-06-26T01:50:19;91676.09;;;17.56;76.98
39455;BME280;25155;41.890;23.446;2023-06-26T01:52:57;91676.56;;;17.49;78.09
39455;BME280;25155;41.890;23.446;2023-06-26T01:55:32;91684.50;;;17.40;78.55
39455;BME280;25155;41.890;23.446;2023-06-26T01:58:01;91679.06;;;17.28;79.99
39455;BME280;25155;41.890;23.446;2023-06-26T02:00:31;91669.59;;;17.18;80.41
39455;BME280;25155;41.890;23.446;2023-06-26T02:02:59;91654.88;;;17.08;81.76
39455;BME280;25155;41.890;23.446;2023-06-26T02:05:26;91656.56;;;16.95;82.93
39455;BME280;25155;41.890;23.446;2023-06-26T02:07:53;91665.03;;;16.84;83.82
39455;BME280;25155;41.890;23.446;2023-06-26T02:10:20;91662.72;;;16.82;83.84
39455;BME280;25155;41.890;23.446;2023-06-26T02:12:48;91671.25;;;16.88;83.89
39455;BME280;25155;41.890;23.446;2023-06-26T02:15:15;91675.31;;;16.94;83.17
39455;BME280;25155;41.890;23.446;2023-06-26T02:17:44;91665.72;;;16.98;83.06
39455;BME280;25155;41.890;23.446;2023-06-26T02:20:14;91663.69;;;17.04;83.06
39455;BME280;25155;41.890;23.446;2023-06-26T02:22:41;91668.03;;;17.08;82.28
39455;BME280;25155;41.890;23.446;2023-06-26T02:25:09;91662.00;;;17.17;81.78
39455;BME280;25155;41.890;23.446;2023-06-26T02:27:38;91663.06;;;17.24;81.55
39455;BME280;25155;41.890;23.446;2023-06-26T02:30:07;91671.00;;;17.33;81.03
39455;BME280;25155;41.890;23.446;2023-06-26T02:32:35;91671.63;;;17.39;80.72
39455;BME280;25155;41.890;23.446;2023-06-26T02:35:04;91665.41;;;17.43;80.21
39455;BME280;25155;41.890;23.446;2023-06-26T02:37:32;91665.72;;;17.50;79.48
39455;BME280;25155;41.890;23.446;2023-06-26T02:39:59;91662.00;;;17.51;78.85
39455;BME280;25155;41.890;23.446;2023-06-26T02:42:26;91662.16;;;17.46;78.40
39455;BME280;25155;41.890;23.446;2023-06-26T02:44:53;91667.59;;;17.41;78.35
39455;BME280;25155;41.890;23.446;2023-06-26T02:47:21;91668.38;;;17.42;78.37
39455;BME280;25155;41.890;23.446;2023-06-26T02:49:48;91658.59;;;17.42;78.18
39455;BME280;25155;41.890;23.446;2023-06-26T02:52:16;91653.94;;;17.39;78.26
39455;BME280;25155;41.890;23.446;2023-06-26T02:54:44;91660.28;;;17.47;77.55
39455;BME280;25155;41.890;23.446;2023-06-26T02:57:12;91658.91;;;17.49;77.36
39455;BME280;25155;41.890;23.446;2023-06-26T02:59:40;91658.25;;;17.52;77.24
39455;BME280;25155;41.890;23.446;2023-06-26T03:02:08;91664.03;;;17.55;77.44
39455;BME280;25155;41.890;23.446;2023-06-26T03:04:36;91661.84;;;17.57;77.27
39455;BME280;25155;41.890;23.446;2023-06-26T03:07:03;91658.59;;;17.60;76.77
39455;BME280;25155;41.890;23.446;2023-06-26T03:09:32;91661.69;;;17.62;76.84
39455;BME280;25155;41.890;23.446;2023-06-26T03:12:00;91661.38;;;17.63;77.14
39455;BME280;25155;41.890;23.446;2023-06-26T03:14:27;91661.50;;;17.67;76.91
39455;BME280;25155;41.890;23.446;2023-06-26T03:16:55;91652.97;;;17.70;76.44
39455;BME280;25155;41.890;23.446;2023-06-26T03:19:24;91659.34;;;17.69;76.60
39455;BME280;25155;41.890;23.446;2023-06-26T03:21:51;91666.94;;;17.70;76.11
39455;BME280;25155;41.890;23.446;2023-06-26T03:24:18;91659.81;;;17.71;76.50
39455;BME280;25155;41.890;23.446;2023-06-26T03:26:47;91668.81;;;17.70;75.76
39455;BME280;25155;41.890;23.446;2023-06-26T03:29:14;91665.72;;;17.68;76.19
39455;BME280;25155;41.890;23.446;2023-06-26T03:31:41;91663.09;;;17.59;76.23
39455;BME280;25155;41.890;23.446;2023-06-26T03:34:08;91664.03;;;17.55;76.43
39455;BME280;25155;41.890;23.446;2023-06-26T03:36:35;91671.00;;;17.50;76.65
39455;BME280;25155;41.890;23.446;2023-06-26T03:39:03;91669.16;;;17.51;76.27
39455;BME280;25155;41.890;23.446;2023-06-26T03:41:30;91668.34;;;17.50;76.55
39455;BME280;25155;41.890;23.446;2023-06-26T03:43:59;91664.63;;;17.51;76.68
39455;BME280;25155;41.890;23.446;2023-06-26T03:46:28;91665.09;;;17.53;76.39
39455;BME280;25155;41.890;23.446;2023-06-26T03:48:56;91662.91;;;17.56;76.05
39455;BME280;25155;41.890;23.446;2023-06-26T03:51:23;91662.00;;;17.60;76.38
39455;BME280;25155;41.890;23.446;2023-06-26T03:53:50;91654.06;;;17.60;76.46
39455;BME280;25155;41.890;23.446;2023-06-26T03:56:17;91656.25;;;17.58;76.66
39455;BME280;25155;41.890;23.446;2023-06-26T03:58:44;91659.50;;;17.55;76.71
39455;BME280;25155;41.890;23.446;2023-06-26T04:01:13;91669.13;;;17.42;78.32
39455;BME280;25155;41.890;23.446;2023-06-26T04:03:40;91663.72;;;17.30;79.48
39455;BME280;25155;41.890;23.446;2023-06-26T04:06:07;91668.19;;;17.21;79.95
39455;BME280;25155;41.890;23.446;2023-06-26T04:08:35;91674.22;;;17.12;81.32
39455;BME280;25155;41.890;23.446;2023-06-26T04:11:02;91670.22;;;17.15;81.29
39455;BME280;25155;41.890;23.446;2023-06-26T04:13:30;91670.53;;;17.13;81.91
39455;BME280;25155;41.890;23.446;2023-06-26T04:15:57;91667.88;;;17.13;82.22
39455;BME280;25155;41.890;23.446;2023-06-26T04:18:25;91672.69;;;17.11;83.52
39455;BME280;25155;41.890;23.446;2023-06-26T04:21:07;91673.78;;;17.10;83.76
39455;BME280;25155;41.890;23.446;2023-06-26T04:23:36;91672.22;;;17.09;85.01
39455;BME280;25155;41.890;23.446;2023-06-26T04:26:03;91678.44;;;17.05;86.66
39455;BME280;25155;41.890;23.446;2023-06-26T04:28:31;91665.06;;;17.01;87.30
39455;BME280;25155;41.890;23.446;2023-06-26T04:30:58;91676.09;;;17.03;87.31
39455;BME280;25155;41.890;23.446;2023-06-26T04:33:27;91678.25;;;17.01;87.65
39455;BME280;25155;41.890;23.446;2023-06-26T04:35:54;91684.94;;;17.07;87.56
39455;BME280;25155;41.890;23.446;2023-06-26T04:38:22;91688.66;;;17.15;87.24
39455;BME280;25155;41.890;23.446;2023-06-26T04:40:49;91685.09;;;17.20;87.08
39455;BME280;25155;41.890;23.446;2023-06-26T04:43:16;91685.88;;;17.20;87.06
39455;BME280;25155;41.890;23.446;2023-06-26T04:45:44;91679.19;;;17.14;87.21
39455;BME280;25155;41.890;23.446;2023-06-26T04:48:11;91679.97;;;17.14;88.01
39455;BME280;25155;41.890;23.446;2023-06-26T04:50:40;91676.25;;;17.15;88.66
39455;BME280;25155;41.890;23.446;2023-06-26T04:53:07;91675.03;;;17.22;88.76
39455;BME280;25155;41.890;23.446;2023-06-26T04:55:35;91678.13;;;17.32;88.68
39455;BME280;25155;41.890;23.446;2023-06-26T04:58:02;91674.56;;;17.46;88.45
39455;BME280;25155;41.890;23.446;2023-06-26T05:00:29;91675.03;;;17.57;88.99
39455;BME280;25155;41.890;23.446;2023-06-26T05:02:57;91676.25;;;17.68;88.45
39455;BME280;25155;41.890;23.446;2023-06-26T05:05:26;91671.91;;;17.81;87.84
39455;BME280;25155;41.890;23.446;2023-06-26T05:07:55;91671.91;;;17.89;87.67
39455;BME280;25155;41.890;23.446;2023-06-26T05:10:23;91673.75;;;17.98;86.87
39455;BME280;25155;41.890;23.446;2023-06-26T05:12:50;91671.72;;;18.03;86.35
39455;BME280;25155;41.890;23.446;2023-06-26T05:15:17;91671.84;;;18.07;85.49
39455;BME280;25155;41.890;23.446;2023-06-26T05:17:44;91680.38;;;18.21;85.80
39455;BME280;25155;41.890;23.446;2023-06-26T05:20:11;91671.31;;;18.31;85.41
39455;BME280;25155;41.890;23.446;2023-06-26T05:22:39;91672.22;;;18.44;85.03
39455;BME280;25155;41.890;23.446;2023-06-26T05:25:09;91666.13;;;18.52;84.52
39455;BME280;25155;41.890;23.446;2023-06-26T05:27:37;91660.66;;;18.57;84.22
39455;BME280;25155;41.890;23.446;2023-06-26T05:30:05;91661.66;;;18.74;84.02
39455;BME280;25155;41.890;23.446;2023-06-26T05:32:34;91673.25;;;18.81;84.15
39455;BME280;25155;41.890;23.446;2023-06-26T05:35:03;91663.78;;;18.89;83.67
39455;BME280;25155;41.890;23.446;2023-06-26T05:37:31;91670.44;;;18.95;83.80
39455;BME280;25155;41.890;23.446;2023-06-26T05:40:00;91666.53;;;19.02;83.55
39455;BME280;25155;41.890;23.446;2023-06-26T05:42:31;91663.69;;;19.07;83.46
39455;BME280;25155;41.890;23.446;2023-06-26T05:44:58;91663.94;;;19.14;83.65
39455;BME280;25155;41.890;23.446;2023-06-26T05:47:25;91664.19;;;19.21;83.05
39455;BME280;25155;41.890;23.446;2023-06-26T05:49:52;91661.03;;;19.28;82.65
39455;BME280;25155;41.890;23.446;2023-06-26T05:52:20;91659.44;;;19.35;82.41
39455;BME280;25155;41.890;23.446;2023-06-26T05:54:48;91660.78;;;19.42;81.96
39455;BME280;25155;41.890;23.446;2023-06-26T05:57:15;91656.06;;;19.47;81.42
39455;BME280;25155;41.890;23.446;2023-06-26T05:59:46;91659.94;;;19.50;81.63
39455;BME280;25155;41.890;23.446;2023-06-26T06:02:14;91661.28;;;19.56;81.65
39455;BME280;25155;41.890;23.446;2023-06-26T06:04:41;91660.44;;;19.64;81.82
39455;BME280;25155;41.890;23.446;2023-06-26T06:07:08;91660.84;;;19.75;81.75
39455;BME280;25155;41.890;23.446;2023-06-26T06:09:35;91668.69;;;19.84;81.48
39455;BME280;25155;41.890;23.446;2023-06-26T06:12:04;91664.88;;;19.94;81.26
39455;BME280;25155;41.890;23.446;2023-06-26T06:14:31;91665.56;;;20.03;81.60
39455;BME280;25155;41.890;23.446;2023-06-26T06:17:00;91656.44;;;20.13;81.01
39455;BME280;25155;41.890;23.446;2023-06-26T06:19:27;91661.31;;;20.23;81.07
39455;BME280;25155;41.890;23.446;2023-06-26T06:21:55;91663.50;;;20.33;81.16
39455;BME280;25155;41.890;23.446;2023-06-26T06:24:22;91663.88;;;20.44;81.00
39455;BME280;25155;41.890;23.446;2023-06-26T06:26:49;91658.47;;;20.53;78.63
39455;BME280;25155;41.890;23.446;2023-06-26T06:29:16;91657.81;;;20.56;76.01
39455;BME280;25155;41.890;23.446;2023-06-26T06:31:44;91656.47;;;20.62;74.97
39455;BME280;25155;41.890;23.446;2023-06-26T06:34:13;91654.41;;;20.68;74.69
39455;BME280;25155;41.890;23.446;2023-06-26T06:36:40;91652.31;;;20.73;73.60
39455;BME280;25155;41.890;23.446;2023-06-26T06:39:07;91658.03;;;20.75;73.50
39455;BME280;25155;41.890;23.446;2023-06-26T06:41:34;91651.41;;;20.81;72.04
39455;BME280;25155;41.890;23.446;2023-06-26T06:44:02;91645.03;;;20.82;72.58
39455;BME280;25155;41.890;23.446;2023-06-26T06:46:29;91650.09;;;20.88;70.83
39455;BME280;25155;41.890;23.446;2023-06-26T06:48:56;91642.38;;;20.82;71.19
39455;BME280;25155;41.890;23.446;2023-06-26T06:51:25;91645.34;;;20.81;71.48
39455;BME280;25155;41.890;23.446;2023-06-26T06:53:52;91651.28;;;20.90;72.23
39455;BME280;25155;41.890;23.446;2023-06-26T06:56:19;91651.75;;;20.92;70.57
39455;BME280;25155;41.890;23.446;2023-06-26T06:58:46;91645.91;;;20.99;70.65
39455;BME280;25155;41.890;23.446;2023-06-26T07:01:13;91647.22;;;21.05;70.21
39455;BME280;25155;41.890;23.446;2023-06-26T07:03:40;91644.53;;;21.17;71.41
39455;BME280;25155;41.890;23.446;2023-06-26T07:06:07;91642.97;;;21.29;70.04
39455;BME280;25155;41.890;23.446;2023-06-26T07:08:36;91646.03;;;21.31;68.93
39455;BME280;25155;41.890;23.446;2023-06-26T07:11:04;91637.84;;;21.36;67.78
39455;BME280;25155;41.890;23.446;2023-06-26T07:13:31;91634.78;;;21.34;67.42
39455;BME280;25155;41.890;23.446;2023-06-26T07:15:58;91634.78;;;21.34;66.87
39455;BME280;25155;41.890;23.446;2023-06-26T07:18:25;91633.66;;;21.35;68.19
39455;BME280;25155;41.890;23.446;2023-06-26T07:20:52;91641.47;;;21.44;68.97
39455;BME280;25155;41.890;23.446;2023-06-26T07:23:19;91630.00;;;21.52;68.44
39455;BME280;25155;41.890;23.446;2023-06-26T07:25:48;91631.72;;;21.60;68.11
39455;BME280;25155;41.890;23.446;2023-06-26T07:28:15;91626.28;;;21.69;68.16
39455;BME280;25155;41.890;23.446;2023-06-26T07:30:42;91628.25;;;21.72;66.79
39455;BME280;25155;41.890;23.446;2023-06-26T07:33:09;91624.94;;;21.75;68.68
39455;BME280;25155;41.890;23.446;2023-06-26T07:35:36;91625.25;;;21.73;67.35
39455;BME280;25155;41.890;23.446;2023-06-26T07:38:04;91613.97;;;21.77;67.89
39455;BME280;25155;41.890;23.446;2023-06-26T07:40:31;91620.22;;;21.84;65.72
39455;BME280;25155;41.890;23.446;2023-06-26T07:42:59;91615.19;;;21.95;66.56
39455;BME280;25155;41.890;23.446;2023-06-26T07:45:27;91610.47;;;22.04;64.78
39455;BME280;25155;41.890;23.446;2023-06-26T07:47:54;91631.34;;;22.18;65.63
39455;BME280;25155;41.890;23.446;2023-06-26T07:50:21;91617.97;;;22.30;64.65
39455;BME280;25155;41.890;23.446;2023-06-26T07:52:49;91623.84;;;22.36;64.46
39455;BME280;25155;41.890;23.446;2023-06-26T07:55:17;91626.56;;;22.40;65.37
39455;BME280;25155;41.890;23.446;2023-06-26T07:57:44;91624.59;;;22.53;64.95
39455;BME280;25155;41.890;23.446;2023-06-26T08:00:14;91629.03;;;22.64;63.04
39455;BME280;25155;41.890;23.446;2023-06-26T08:02:41;91630.41;;;22.74;60.79
39455;BME280;25155;41.890;23.446;2023-06-26T08:05:09;91624.50;;;22.65;61.13
39455;BME280;25155;41.890;23.446;2023-06-26T08:07:36;91630.41;;;22.58;62.55
39455;BME280;25155;41.890;23.446;2023-06-26T08:10:03;91625.25;;;22.65;61.69
39455;BME280;25155;41.890;23.446;2023-06-26T08:12:31;91628.38;;;22.67;61.99
39455;BME280;25155;41.890;23.446;2023-06-26T08:14:58;91617.53;;;22.76;61.85
39455;BME280;25155;41.890;23.446;2023-06-26T08:17:29;91617.34;;;22.85;62.80
39455;BME280;25155;41.890;23.446;2023-06-26T08:19:56;91614.75;;;22.89;61.00
39455;BME280;25155;41.890;23.446;2023-06-26T08:22:23;91612.63;;;22.94;61.57
39455;BME280;25155;41.890;23.446;2023-06-26T08:24:50;91614.72;;;23.04;62.21
39455;BME280;25155;41.890;23.446;2023-06-26T08:27:18;91620.22;;;23.12;60.81
39455;BME280;25155;41.890;23.446;2023-06-26T08:29:45;91617.16;;;23.10;59.61
39455;BME280;25155;41.890;23.446;2023-06-26T08:32:12;91609.06;;;23.22;61.18
39455;BME280;25155;41.890;23.446;2023-06-26T08:34:40;91611.16;;;23.32;60.03
39455;BME280;25155;41.890;23.446;2023-06-26T08:37:07;91609.50;;;23.44;60.01
39455;BME280;25155;41.890;23.446;2023-06-26T08:39:35;91603.31;;;23.59;61.22
39455;BME280;25155;41.890;23.446;2023-06-26T08:42:02;91601.34;;;23.75;59.73
39455;BME280;25155;41.890;23.446;2023-06-26T08:44:30;91594.72;;;23.85;59.35
39455;BME280;25155;41.890;23.446;2023-06-26T08:46:59;91595.72;;;23.81;56.39
39455;BME280;25155;41.890;23.446;2023-06-26T08:49:33;91600.22;;;23.76;57.52
39455;BME280;25155;41.890;23.446;2023-06-26T08:52:09;91598.69;;;23.75;57.42
39455;BME280;25155;41.890;23.446;2023-06-26T08:54:46;91598.41;;;23.81;57.49
39455;BME280;25155;41.890;23.446;2023-06-26T08:57:16;91595.19;;;23.91;57.51
39455;BME280;25155;41.890;23.446;2023-06-26T08:59:45;91601.81;;;24.01;55.75
39455;BME280;25155;41.890;23.446;2023-06-26T09:02:13;91595.44;;;24.05;56.32
39455;BME280;25155;41.890;23.446;2023-06-26T09:04:40;91603.94;;;24.14;56.48
39455;BME280;25155;41.890;23.446;2023-06-26T09:07:09;91584.50;;;24.34;57.58
39455;BME280;25155;41.890;23.446;2023-06-26T09:09:36;91589.13;;;24.60;59.44
39455;BME280;25155;41.890;23.446;2023-06-26T09:12:04;91594.06;;;24.84;58.87
39455;BME280;25155;41.890;23.446;2023-06-26T09:14:31;91600.00;;;25.01;57.33
39455;BME280;25155;41.890;23.446;2023-06-26T09:16:58;91597.69;;;24.99;51.59
39455;BME280;25155;41.890;23.446;2023-06-26T09:19:26;91599.38;;;24.84;51.62
39455;BME280;25155;41.890;23.446;2023-06-26T09:21:54;91604.19;;;24.75;52.41
39455;BME280;25155;41.890;23.446;2023-06-26T09:24:23;91611.75;;;24.70;52.71
39455;BME280;25155;41.890;23.446;2023-06-26T09:26:52;91604.16;;;24.48;52.53
39455;BME280;25155;41.890;23.446;2023-06-26T09:29:19;91613.34;;;24.28;54.23
39455;BME280;25155;41.890;23.446;2023-06-26T09:31:46;91607.75;;;24.13;55.74
39455;BME280;25155;41.890;23.446;2023-06-26T09:34:13;91608.06;;;24.08;57.28
39455;BME280;25155;41.890;23.446;2023-06-26T09:36:41;91616.47;;;24.10;57.91
39455;BME280;25155;41.890;23.446;2023-06-26T09:39:12;91618.22;;;24.03;59.46
39455;BME280;25155;41.890;23.446;2023-06-26T09:41:43;91635.53;;;23.93;59.98
39455;BME280;25155;41.890;23.446;2023-06-26T09:44:11;91636.91;;;23.83;60.73
39455;BME280;25155;41.890;23.446;2023-06-26T09:46:39;91641.69;;;23.58;62.52
39455;BME280;25155;41.890;23.446;2023-06-26T09:49:08;91642.41;;;23.35;64.20
39455;BME280;25155;41.890;23.446;2023-06-26T09:51:37;91655.25;;;23.14;64.87
39455;BME280;25155;41.890;23.446;2023-06-26T09:54:05;91655.59;;;22.96;62.61
39455;BME280;25155;41.890;23.446;2023-06-26T09:56:33;91659.38;;;22.79;60.79
39455;BME280;25155;41.890;23.446;2023-06-26T09:59:03;91651.56;;;22.71;60.24
39455;BME280;25155;41.890;23.446;2023-06-26T10:01:31;91649.44;;;22.60;58.95
39455;BME280;25155;41.890;23.446;2023-06-26T10:03:59;91653.31;;;22.47;58.44
39455;BME280;25155;41.890;23.446;2023-06-26T10:06:28;91646.69;;;22.41;59.94
39455;BME280;25155;41.890;23.446;2023-06-26T10:09:00;91637.44;;;22.35;61.37
39455;BME280;25155;41.890;23.446;2023-06-26T10:11:34;91631.75;;;22.20;63.13
39455;BME280;25155;41.890;23.446;2023-06-26T10:14:07;91647.69;;;22.20;63.40
39455;BME280;25155;41.890;23.446;2023-06-26T10:16:36;91653.88;;;22.24;64.15
39455;BME280;25155;41.890;23.446;2023-06-26T10:19:08;91659.47;;;22.35;66.02
39455;BME280;25155;41.890;23.446;2023-06-26T10:21:38;91652.47;;;22.43;65.76
39455;BME280;25155;41.890;23.446;2023-06-26T10:24:06;91666.00;;;22.54;66.15
39455;BME280;25155;41.890;23.446;2023-06-26T10:26:38;91671.03;;;22.59;66.70
39455;BME280;25155;41.890;23.446;2023-06-26T10:29:11;91677.56;;;22.61;67.01
39455;BME280;25155;41.890;23.446;2023-06-26T10:31:44;91669.59;;;22.61;65.47
39455;BME280;25155;41.890;23.446;2023-06-26T10:34:12;91676.28;;;22.55;62.71
39455;BME280;25155;41.890;23.446;2023-06-26T10:36:39;91658.34;;;22.52;62.59
39455;BME280;25155;41.890;23.446;2023-06-26T10:39:07;91656.56;;;22.56;62.74
39455;BME280;25155;41.890;23.446;2023-06-26T10:41:38;91646.13;;;22.47;62.09
39455;BME280;25155;41.890;23.446;2023-06-26T10:44:11;91633.34;;;22.53;62.81
39455;BME280;25155;41.890;23.446;2023-06-26T10:46:59;91640.97;;;22.55;64.27
39455;BME280;25155;41.890;23.446;2023-06-26T10:49:29;91643.53;;;22.67;64.31
39455;BME280;25155;41.890;23.446;2023-06-26T10:52:01;91636.06;;;22.73;66.92
39455;BME280;25155;41.890;23.446;2023-06-26T10:54:31;91630.06;;;22.76;64.00
39455;BME280;25155;41.890;23.446;2023-06-26T10:56:59;91636.13;;;22.92;64.24
39455;BME280;25155;41.890;23.446;2023-06-26T10:59:31;91630.53;;;23.13;63.69
39455;BME280;25155;41.890;23.446;2023-06-26T11:02:01;91632.22;;;23.21;62.09
39455;BME280;25155;41.890;23.446;2023-06-26T11:04:39;91625.03;;;23.22;61.30
39455;BME280;25155;41.890;23.446;2023-06-26T11:07:19;91630.91;;;23.31;62.03
39455;BME280;25155;41.890;23.446;2023-06-26T11:10:00;91632.03;;;23.50;62.83
39455;BME280;25155;41.890;23.446;2023-06-26T11:12:37;91626.59;;;23.62;63.27
39455;BME280;25155;41.890;23.446;2023-06-26T11:15:09;91630.63;;;23.75;62.73
39455;BME280;25155;41.890;23.446;2023-06-26T11:17:37;91631.66;;;23.87;63.29
39455;BME280;25155;41.890;23.446;2023-06-26T11:20:06;91632.47;;;23.91;64.08
39455;BME280;25155;41.890;23.446;2023-06-26T11:22:35;91633.09;;;23.84;64.87
39455;BME280;25155;41.890;23.446;2023-06-26T11:25:04;91636.13;;;23.83;66.29
39455;BME280;25155;41.890;23.446;2023-06-26T11:27:32;91636.72;;;23.76;64.68
39455;BME280;25155;41.890;23.446;2023-06-26T11:30:00;91632.09;;;23.73;63.09
39455;BME280;25155;41.890;23.446;2023-06-26T11:32:28;91638.06;;;23.66;63.13
39455;BME280;25155;41.890;23.446;2023-06-26T11:34:55;91647.31;;;23.72;61.30
39455;BME280;25155;41.890;23.446;2023-06-26T11:37:22;91637.16;;;23.58;58.74
39455;BME280;25155;41.890;23.446;2023-06-26T11:39:49;91637.56;;;23.61;59.45
39455;BME280;25155;41.890;23.446;2023-06-26T11:42:17;91634.41;;;23.74;60.98
39455;BME280;25155;41.890;23.446;2023-06-26T11:44:45;91632.47;;;23.91;62.61
39455;BME280;25155;41.890;23.446;2023-06-26T11:47:13;91630.06;;;24.05;59.87
39455;BME280;25155;41.890;23.446;2023-06-26T11:49:43;91621.41;;;23.89;57.46
39455;BME280;25155;41.890;23.446;2023-06-26T11:52:11;91627.56;;;23.73;58.52
39455;BME280;25155;41.890;23.446;2023-06-26T11:54:38;91619.94;;;23.72;60.99
39455;BME280;25155;41.890;23.446;2023-06-26T11:57:05;91612.16;;;23.83;64.17
39455;BME280;25155;41.890;23.446;2023-06-26T11:59:36;91612.41;;;23.97;62.32
39455;BME280;25155;41.890;23.446;2023-06-26T12:02:06;91605.41;;;24.08;59.96
39455;BME280;25155;41.890;23.446;2023-06-26T12:04:34;91608.75;;;24.05;57.72
39455;BME280;25155;41.890;23.446;2023-06-26T12:07:05;91603.53;;;24.12;55.54
39455;BME280;25155;41.890;23.446;2023-06-26T12:09:38;91605.22;;;24.21;58.06
39455;BME280;25155;41.890;23.446;2023-06-26T12:12:08;91602.75;;;24.31;56.53
39455;BME280;25155;41.890;23.446;2023-06-26T12:14:35;91607.81;;;24.40;56.18
39455;BME280;25155;41.890;23.446;2023-06-26T12:17:09;91619.06;;;24.53;57.26
39455;BME280;25155;41.890;23.446;2023-06-26T12:19:37;91614.72;;;24.64;56.50
39455;BME280;25155;41.890;23.446;2023-06-26T12:22:10;91615.13;;;24.66;56.64
39455;BME280;25155;41.890;23.446;2023-06-26T12:24:38;91609.47;;;24.72;57.74
39455;BME280;25155;41.890;23.446;2023-06-26T12:27:08;91606.41;;;24.70;57.39
39455;BME280;25155;41.890;23.446;2023-06-26T12:29:37;91596.69;;;24.81;56.89
39455;BME280;25155;41.890;23.446;2023-06-26T12:32:09;91599.88;;;24.94;58.08
39455;BME280;25155;41.890;23.446;2023-06-26T12:34:39;91594.03;;;25.11;59.18
39455;BME280;25155;41.890;23.446;2023-06-26T12:37:08;91587.41;;;25.28;57.66
39455;BME280;25155;41.890;23.446;2023-06-26T12:39:51;91586.00;;;25.38;57.22
39455;BME280;25155;41.890;23.446;2023-06-26T12:42:19;91592.94;;;25.42;56.82
39455;BME280;25155;41.890;23.446;2023-06-26T12:44:47;91586.06;;;25.41;55.94
39455;BME280;25155;41.890;23.446;2023-06-26T12:47:15;91590.53;;;25.34;53.03
39455;BME280;25155;41.890;23.446;2023-06-26T12:49:44;91591.81;;;25.17;53.08
39455;BME280;25155;41.890;23.446;2023-06-26T12:52:12;91582.31;;;25.19;53.08
39455;BME280;25155;41.890;23.446;2023-06-26T12:54:42;91590.84;;;25.02;51.58
39455;BME280;25155;41.890;23.446;2023-06-26T12:57:10;91592.25;;;24.65;53.61